NKS247 KLAX-KLAS
Flight info
| Callsign | NKS247 |
|---|---|
| Flight time | N/A |
| Altitude | 29000 |
| Route | ORCKA5 MISEN RNDRZ4 |
| Aircraft | A20N/M-SDE2E3FGHIRWXY/LB1 |
Departure
| Time | 2026-05-03 20:38 |
|---|---|
| Airport | Los Angeles International Airport (KLAX) |
Arrival
| Time | N/A |
|---|---|
| Airport | Harry Reid International Airport (KLAS) |
| Time | Latitude | Longitude | Altitude | Speed | Heading |
|---|---|---|---|---|---|
| 2026-05-03 20:15 | 33.94142 | -118.40141 | 124 ft | 0 kts | 274° |
| 2026-05-03 20:26 | 33.94141 | -118.40133 | 126 ft | 2 kts | 271° |
| 2026-05-03 20:27 | 33.94143 | -118.40110 | 123 ft | 3 kts | 248° |
| 2026-05-03 20:27 | 33.94152 | -118.40092 | 122 ft | 3 kts | 207° |
| 2026-05-03 20:27 | 33.94165 | -118.40088 | 123 ft | 1 kts | 174° |
| 2026-05-03 20:27 | 33.94167 | -118.40088 | 123 ft | 0 kts | 173° |
| 2026-05-03 20:32 | 33.94164 | -118.40087 | 123 ft | 3 kts | 173° |
| 2026-05-03 20:33 | 33.94104 | -118.40079 | 126 ft | 12 kts | 172° |
| 2026-05-03 20:33 | 33.94011 | -118.40064 | 124 ft | 15 kts | 172° |
| 2026-05-03 20:33 | 33.93940 | -118.40052 | 123 ft | 4 kts | 172° |
| 2026-05-03 20:33 | 33.93907 | -118.40040 | 123 ft | 6 kts | 149° |
| 2026-05-03 20:34 | 33.93881 | -118.39990 | 123 ft | 8 kts | 97° |
| 2026-05-03 20:34 | 33.93888 | -118.39912 | 124 ft | 11 kts | 83° |
| 2026-05-03 20:34 | 33.93898 | -118.39815 | 121 ft | 13 kts | 83° |
| 2026-05-03 20:34 | 33.93909 | -118.39700 | 126 ft | 15 kts | 83° |
| 2026-05-03 20:35 | 33.93923 | -118.39567 | 126 ft | 17 kts | 83° |
| 2026-05-03 20:35 | 33.93938 | -118.39415 | 122 ft | 19 kts | 83° |
| 2026-05-03 20:35 | 33.93956 | -118.39244 | 123 ft | 22 kts | 82° |
| 2026-05-03 20:35 | 33.93975 | -118.39054 | 126 ft | 24 kts | 83° |
| 2026-05-03 20:36 | 33.93996 | -118.38846 | 126 ft | 26 kts | 83° |
| 2026-05-03 20:36 | 33.94020 | -118.38616 | 125 ft | 29 kts | 83° |
| 2026-05-03 20:36 | 33.94041 | -118.38415 | 122 ft | 14 kts | 83° |
| 2026-05-03 20:36 | 33.94037 | -118.38348 | 122 ft | 7 kts | 123° |
| 2026-05-03 20:37 | 33.93984 | -118.38324 | 122 ft | 9 kts | 175° |
| 2026-05-03 20:37 | 33.93948 | -118.38386 | 126 ft | 10 kts | 263° |
| 2026-05-03 20:37 | 33.93947 | -118.38394 | 126 ft | 6 kts | 263° |
| 2026-05-03 20:37 | 33.93899 | -118.38836 | 124 ft | 99 kts | 263° |
| 2026-05-03 20:38 | 33.93782 | -118.39966 | 131 ft | 168 kts | 263° |
| 2026-05-03 20:38 | 33.93609 | -118.41471 | 525 ft | 192 kts | 261° |
| 2026-05-03 20:38 | 33.93401 | -118.43170 | 910 ft | 218 kts | 259° |
| 2026-05-03 20:38 | 33.93148 | -118.45074 | 1520 ft | 239 kts | 259° |
| 2026-05-03 20:39 | 33.92798 | -118.47066 | 2383 ft | 247 kts | 256° |
| 2026-05-03 20:39 | 33.92277 | -118.49055 | 3310 ft | 251 kts | 246° |
| 2026-05-03 20:39 | 33.91380 | -118.50873 | 4117 ft | 258 kts | 225° |
| 2026-05-03 20:39 | 33.89894 | -118.52097 | 4771 ft | 263 kts | 198° |
| 2026-05-03 20:40 | 33.88110 | -118.52356 | 4958 ft | 259 kts | 170° |
| 2026-05-03 20:40 | 33.86455 | -118.51582 | 5008 ft | 257 kts | 144° |
| 2026-05-03 20:40 | 33.85265 | -118.49990 | 5008 ft | 258 kts | 119° |
| 2026-05-03 20:40 | 33.84804 | -118.47897 | 5114 ft | 270 kts | 91° |
| 2026-05-03 20:41 | 33.85250 | -118.45678 | 5991 ft | 279 kts | 65° |
| 2026-05-03 20:41 | 33.86518 | -118.43906 | 6786 ft | 292 kts | 34° |
| 2026-05-03 20:41 | 33.88453 | -118.43126 | 7566 ft | 300 kts | 1° |
| 2026-05-03 20:41 | 33.90522 | -118.43322 | 8409 ft | 303 kts | 354° |
| 2026-05-03 20:42 | 33.92605 | -118.42988 | 9201 ft | 309 kts | 24° |
| 2026-05-03 20:42 | 33.94343 | -118.41489 | 9996 ft | 311 kts | 51° |
| 2026-05-03 20:42 | 33.95600 | -118.39327 | 10458 ft | 326 kts | 59° |
| 2026-05-03 20:42 | 33.96891 | -118.36961 | 10716 ft | 347 kts | 58° |
| 2026-05-03 20:43 | 33.98258 | -118.34506 | 11276 ft | 357 kts | 58° |
| 2026-05-03 20:43 | 33.99659 | -118.32015 | 11950 ft | 362 kts | 57° |
| 2026-05-03 20:43 | 34.01091 | -118.29485 | 12635 ft | 367 kts | 57° |
| 2026-05-03 20:43 | 34.02544 | -118.26927 | 13316 ft | 372 kts | 57° |
| 2026-05-03 20:44 | 34.04012 | -118.24347 | 13984 ft | 376 kts | 57° |
| 2026-05-03 20:44 | 34.05505 | -118.21725 | 14590 ft | 381 kts | 57° |
| 2026-05-03 20:44 | 34.07013 | -118.19080 | 15178 ft | 386 kts | 57° |
| 2026-05-03 20:44 | 34.08538 | -118.16395 | 15763 ft | 390 kts | 57° |
| 2026-05-03 20:45 | 34.10083 | -118.13664 | 16341 ft | 395 kts | 57° |
| 2026-05-03 20:45 | 34.11636 | -118.10910 | 16929 ft | 400 kts | 57° |
| 2026-05-03 20:45 | 34.13209 | -118.08120 | 17524 ft | 404 kts | 56° |
| 2026-05-03 20:45 | 34.14801 | -118.05295 | 18093 ft | 409 kts | 57° |
| 2026-05-03 20:46 | 34.16409 | -118.02436 | 18617 ft | 414 kts | 57° |
| 2026-05-03 20:46 | 34.18046 | -117.99522 | 19089 ft | 421 kts | 56° |
| 2026-05-03 20:46 | 34.19697 | -117.96584 | 19564 ft | 427 kts | 56° |
| 2026-05-03 20:46 | 34.21383 | -117.93586 | 20018 ft | 434 kts | 56° |
| 2026-05-03 20:47 | 34.23091 | -117.90550 | 20504 ft | 440 kts | 56° |
| 2026-05-03 20:47 | 34.24826 | -117.87462 | 20994 ft | 447 kts | 55° |
| 2026-05-03 20:47 | 34.26582 | -117.84329 | 21435 ft | 454 kts | 55° |
| 2026-05-03 20:47 | 34.28345 | -117.81179 | 21879 ft | 460 kts | 55° |
| 2026-05-03 20:48 | 34.30146 | -117.77962 | 22298 ft | 466 kts | 55° |
| 2026-05-03 20:48 | 34.31977 | -117.74689 | 22767 ft | 472 kts | 54° |
| 2026-05-03 20:48 | 34.33831 | -117.71374 | 23223 ft | 478 kts | 54° |
| 2026-05-03 20:48 | 34.35703 | -117.68035 | 23630 ft | 484 kts | 53° |
| 2026-05-03 20:49 | 34.37647 | -117.64678 | 23954 ft | 489 kts | 52° |
| 2026-05-03 20:49 | 34.39649 | -117.61327 | 24329 ft | 492 kts | 52° |
| 2026-05-03 20:49 | 34.41676 | -117.57988 | 24708 ft | 495 kts | 51° |